Time;durP1;ratioP1;P1;durP2;ratioP2;P2;SDS_P1;SDS_P2;PMS_P1;PMS_P2;Temp;Humidity;BMP_temperature;BMP_pressure;BME280_temperature;BME280_humidity;BME280_pressure;Samples;Min_cycle;Max_cycle;Signal;HPM_P1;HPM_P2
2021/01/21 00:00:09;;;;;;;16.67;3.65;;;22.20;21.40;;;;;;1038061;28;20033;-71
2021/01/21 00:00:40;;;;;;;16.10;3.20;;;22.20;21.60;;;;;;1040437;28;20044;-71
2021/01/21 00:01:11;;;;;;;10.23;2.90;;;22.20;21.90;;;;;;1040384;28;20095;-71
2021/01/21 00:01:43;;;;;;;18.58;3.47;;;22.20;22.50;;;;;;1038733;28;20112;-71
2021/01/21 00:02:15;;;;;;;11.90;3.15;;;22.20;22.80;;;;;;1037841;28;20014;-71
2021/01/21 00:02:46;;;;;;;10.55;3.25;;;22.20;22.70;;;;;;1040717;28;20104;-72
2021/01/21 00:03:18;;;;;;;15.13;3.20;;;22.20;22.20;;;;;;1035674;28;20017;-72
2021/01/21 00:03:49;;;;;;;21.63;3.05;;;22.10;21.90;;;;;;1040827;28;20017;-72
2021/01/21 00:04:20;;;;;;;15.30;3.28;;;22.10;21.80;;;;;;1032550;28;20014;-74
2021/01/21 00:04:52;;;;;;;16.52;3.10;;;22.10;21.90;;;;;;1035138;28;20467;-71
2021/01/21 00:05:23;;;;;;;9.45;3.13;;;22.10;22.00;;;;;;1032637;28;20015;-71
2021/01/21 00:05:54;;;;;;;18.10;3.42;;;22.10;21.70;;;;;;1031396;28;20015;-71
2021/01/21 00:06:26;;;;;;;13.93;2.80;;;22.10;21.70;;;;;;1036671;28;20014;-71
2021/01/21 00:06:57;;;;;;;13.40;3.83;;;22.10;21.70;;;;;;1036664;28;20468;-72
2021/01/21 00:07:29;;;;;;;14.25;3.05;;;22.10;21.80;;;;;;1039361;28;20041;-71
2021/01/21 00:08:00;;;;;;;19.80;3.10;;;22.10;21.70;;;;;;1039504;28;20013;-71
2021/01/21 00:08:31;;;;;;;13.93;2.95;;;22.20;21.70;;;;;;1038404;28;20479;-71
2021/01/21 00:09:03;;;;;;;13.13;2.95;;;22.20;21.90;;;;;;1040734;28;20340;-71
2021/01/21 00:09:34;;;;;;;19.90;3.20;;;22.20;21.80;;;;;;1038222;28;20105;-72
2021/01/21 00:10:07;;;;;;;18.77;3.40;;;22.10;21.60;;;;;;1039068;28;20040;-71
2021/01/21 00:10:38;;;;;;;14.38;3.53;;;22.10;21.60;;;;;;1038411;28;20049;-71
2021/01/21 00:11:09;;;;;;;11.73;2.90;;;22.10;21.80;;;;;;1039488;28;20017;-71
2021/01/21 00:11:41;;;;;;;20.38;3.30;;;22.20;22.20;;;;;;1039254;28;20504;-72
2021/01/21 00:12:12;;;;;;;12.77;3.13;;;22.10;22.30;;;;;;1041216;28;20481;-70
2021/01/21 00:12:44;;;;;;;12.88;3.17;;;22.10;22.20;;;;;;1044733;28;20398;-70
2021/01/21 00:13:15;;;;;;;14.20;2.97;;;22.10;22.10;;;;;;1043307;28;20020;-71
2021/01/21 00:13:46;;;;;;;14.75;3.10;;;22.10;22.10;;;;;;1042159;28;20059;-72
2021/01/21 00:14:18;;;;;;;18.63;3.00;;;22.10;22.30;;;;;;1040092;28;20451;-70
2021/01/21 00:14:49;;;;;;;21.05;3.15;;;22.10;22.20;;;;;;1040024;28;20048;-71
2021/01/21 00:15:21;;;;;;;12.07;2.83;;;22.10;22.10;;;;;;1039682;28;20022;-70
2021/01/21 00:15:52;;;;;;;14.65;2.85;;;22.10;22.00;;;;;;1034543;28;20030;-71
2021/01/21 00:16:24;;;;;;;15.50;2.70;;;22.10;22.20;;;;;;1034229;28;20182;-73
2021/01/21 00:16:55;;;;;;;12.98;2.97;;;22.00;22.10;;;;;;1039685;28;20017;-71
2021/01/21 00:17:26;;;;;;;14.95;2.65;;;22.10;22.20;;;;;;1038364;28;20025;-72
2021/01/21 00:18:00;;;;;;;13.88;2.83;;;22.00;22.20;;;;;;1042463;28;20051;-71
2021/01/21 00:18:31;;;;;;;12.15;3.13;;;22.00;22.30;;;;;;1040371;28;20013;-70
2021/01/21 00:19:03;;;;;;;11.10;2.67;;;22.00;22.40;;;;;;1039584;28;20045;-71
2021/01/21 00:19:35;;;;;;;16.13;3.05;;;22.00;22.60;;;;;;1039050;28;20021;-71
2021/01/21 00:20:06;;;;;;;19.20;2.88;;;22.00;22.50;;;;;;1035024;28;20109;-70
2021/01/21 00:20:38;;;;;;;15.40;3.25;;;22.00;22.50;;;;;;1036668;28;20017;-71
2021/01/21 00:21:09;;;;;;;13.75;2.75;;;22.00;22.50;;;;;;1035010;28;20053;-71
2021/01/21 00:21:41;;;;;;;17.75;3.20;;;22.00;22.50;;;;;;1030258;28;20038;-70
2021/01/21 00:22:12;;;;;;;14.68;3.40;;;22.00;22.40;;;;;;1035839;28;20018;-70
2021/01/21 00:22:43;;;;;;;8.93;2.40;;;22.00;22.40;;;;;;1032000;28;20014;-70
2021/01/21 00:23:15;;;;;;;18.80;2.78;;;22.00;22.60;;;;;;1035576;28;20475;-71
2021/01/21 00:23:46;;;;;;;12.07;2.40;;;22.00;22.70;;;;;;1033793;28;20188;-70
2021/01/21 00:24:18;;;;;;;10.75;2.42;;;22.00;22.50;;;;;;1035619;28;20029;-71
2021/01/21 00:24:49;;;;;;;13.52;3.03;;;22.00;22.30;;;;;;1039434;28;20505;-71
2021/01/21 00:25:20;;;;;;;13.90;2.70;;;21.90;22.20;;;;;;1037435;28;20021;-70
2021/01/21 00:25:52;;;;;;;14.50;2.70;;;22.00;22.50;;;;;;1040561;28;20014;-71
2021/01/21 00:26:23;;;;;;;17.30;3.25;;;21.90;22.40;;;;;;1039380;28;20029;-70
2021/01/21 00:26:55;;;;;;;14.73;2.88;;;21.90;22.30;;;;;;1037458;28;20693;-72
2021/01/21 00:27:26;;;;;;;11.63;2.80;;;21.90;22.40;;;;;;1038832;28;20033;-71
2021/01/21 00:27:58;;;;;;;13.18;2.88;;;21.90;22.40;;;;;;1038738;28;20372;-71
2021/01/21 00:28:29;;;;;;;14.77;2.75;;;21.90;22.30;;;;;;1037213;28;20080;-72
2021/01/21 00:29:01;;;;;;;11.77;3.10;;;21.90;22.90;;;;;;1041940;28;20033;-71
2021/01/21 00:29:32;;;;;;;14.15;2.60;;;21.90;22.70;;;;;;1040821;28;20047;-71
2021/01/21 00:30:08;;;;;;;21.50;3.08;;;21.90;22.80;;;;;;1042476;28;20105;-71
2021/01/21 00:30:40;;;;;;;10.77;3.00;;;21.90;23.00;;;;;;1040384;28;20514;-70
2021/01/21 00:31:11;;;;;;;15.65;2.75;;;21.90;23.20;;;;;;1039724;28;20372;-70
2021/01/21 00:31:42;;;;;;;11.70;2.70;;;21.90;22.90;;;;;;1039969;28;20435;-73
2021/01/21 00:32:14;;;;;;;14.80;3.38;;;21.80;22.60;;;;;;1037830;28;20018;-71
2021/01/21 00:32:45;;;;;;;13.30;2.40;;;21.80;23.00;;;;;;1039589;28;20017;-72
2021/01/21 00:33:17;;;;;;;11.48;2.63;;;21.80;23.50;;;;;;1034119;28;20096;-72
2021/01/21 00:33:48;;;;;;;12.43;2.88;;;21.80;23.10;;;;;;1033449;28;20053;-71
2021/01/21 00:34:20;;;;;;;12.88;3.10;;;21.80;22.80;;;;;;1033742;28;20041;-72
2021/01/21 00:34:51;;;;;;;11.25;2.58;;;21.80;22.60;;;;;;1031289;28;20029;-70
2021/01/21 00:35:22;;;;;;;12.73;3.05;;;21.80;22.70;;;;;;1037105;28;21373;-71
2021/01/21 00:35:54;;;;;;;14.80;3.47;;;21.80;22.90;;;;;;1037435;28;20023;-71
2021/01/21 00:36:25;;;;;;;10.52;2.95;;;21.80;23.00;;;;;;1036195;28;20029;-71
2021/01/21 00:36:57;;;;;;;13.05;3.10;;;21.80;22.90;;;;;;1036396;28;20014;-72
2021/01/21 00:37:28;;;;;;;16.10;2.83;;;21.80;22.80;;;;;;1036577;28;20017;-71
2021/01/21 00:37:59;;;;;;;13.05;2.72;;;21.70;22.90;;;;;;1041712;28;20410;-71
2021/01/21 00:38:31;;;;;;;13.75;3.10;;;21.70;23.10;;;;;;1039766;28;20049;-72
2021/01/21 00:39:04;;;;;;;9.25;2.55;;;21.70;23.50;;;;;;1040310;28;20025;-71
2021/01/21 00:39:35;;;;;;;10.20;2.72;;;21.70;23.70;;;;;;1039176;28;20022;-72
2021/01/21 00:40:07;;;;;;;13.35;2.70;;;21.70;24.20;;;;;;1032845;28;20689;-71
2021/01/21 00:40:39;;;;;;;10.77;3.15;;;21.70;23.80;;;;;;1038843;28;20451;-71
2021/01/21 00:41:10;;;;;;;11.60;2.85;;;21.70;23.70;;;;;;1036368;28;20021;-71
2021/01/21 00:41:42;;;;;;;12.00;2.63;;;21.70;23.70;;;;;;1039385;28;20021;-71
2021/01/21 00:42:13;;;;;;;16.52;3.00;;;21.70;24.80;;;;;;1039471;28;20009;-71
2021/01/21 00:42:44;;;;;;;11.20;2.80;;;21.60;25.30;;;;;;1039691;28;20089;-71
2021/01/21 00:43:16;;;;;;;20.15;3.30;;;21.60;25.60;;;;;;1040798;28;20071;-71
2021/01/21 00:43:47;;;;;;;12.27;2.70;;;21.50;25.60;;;;;;1039101;28;20013;-71
2021/01/21 00:44:18;;;;;;;11.43;2.83;;;21.40;25.60;;;;;;1038910;28;20022;-72
2021/01/21 00:44:50;;;;;;;13.48;3.20;;;21.40;25.60;;;;;;1040217;28;20075;-72
2021/01/21 00:45:21;;;;;;;17.40;2.90;;;21.30;25.70;;;;;;1036518;28;20387;-71
2021/01/21 00:45:55;;;;;;;11.35;2.58;;;21.30;25.80;;;;;;1036290;28;20028;-71
2021/01/21 00:46:26;;;;;;;12.30;3.17;;;21.30;25.90;;;;;;1031935;28;20065;-71
2021/01/21 00:46:58;;;;;;;17.10;3.25;;;21.20;25.90;;;;;;1031868;28;20065;-71
2021/01/21 00:47:29;;;;;;;16.08;3.28;;;21.20;26.00;;;;;;1036900;28;20076;-71
2021/01/21 00:48:00;;;;;;;13.77;2.97;;;21.20;26.10;;;;;;1040563;28;20032;-73
2021/01/21 00:48:32;;;;;;;12.98;2.83;;;21.10;26.30;;;;;;1041157;28;20439;-74
2021/01/21 00:49:04;;;;;;;16.67;3.33;;;21.10;26.50;;;;;;1040499;28;20013;-72
2021/01/21 00:49:35;;;;;;;15.68;3.22;;;21.00;26.50;;;;;;1040706;28;20439;-73
2021/01/21 00:50:07;;;;;;;15.43;2.95;;;21.00;26.50;;;;;;1038393;28;20017;-72
2021/01/21 00:50:38;;;;;;;14.05;2.80;;;20.90;26.50;;;;;;1034765;28;20022;-72
2021/01/21 00:51:11;;;;;;;11.85;2.78;;;20.90;26.60;;;;;;1035748;28;20014;-72
2021/01/21 00:51:43;;;;;;;15.85;3.10;;;20.90;26.60;;;;;;1036615;28;20464;-74
2021/01/21 00:52:14;;;;;;;12.05;3.90;;;20.80;26.60;;;;;;1033021;28;20021;-71
2021/01/21 00:52:45;;;;;;;12.95;2.90;;;20.80;26.80;;;;;;1032642;28;20022;-71
2021/01/21 00:53:17;;;;;;;16.40;3.50;;;20.80;26.70;;;;;;1036379;28;20493;-71
2021/01/21 00:53:48;;;;;;;17.73;2.97;;;20.70;26.70;;;;;;1035341;28;20029;-71
2021/01/21 00:54:20;;;;;;;11.90;2.47;;;20.70;26.70;;;;;;1036539;28;20025;-71
2021/01/21 00:54:51;;;;;;;15.73;3.38;;;20.60;26.80;;;;;;1039028;28;20010;-71
2021/01/21 00:55:22;;;;;;;7.68;2.95;;;20.60;26.80;;;;;;1040622;28;20148;-72
2021/01/21 00:55:54;;;;;;;17.25;3.72;;;20.50;26.90;;;;;;1043232;28;20028;-71
2021/01/21 00:56:25;;;;;;;14.02;3.80;;;20.50;26.90;;;;;;1044670;28;20043;-71
2021/01/21 00:56:57;;;;;;;15.90;3.95;;;20.40;26.90;;;;;;1044172;28;20009;-72
2021/01/21 00:57:28;;;;;;;15.55;4.97;;;20.40;26.90;;;;;;1039781;28;20024;-71
2021/01/21 00:58:00;;;;;;;15.30;4.50;;;20.30;27.00;;;;;;1034987;28;20112;-72
2021/01/21 00:58:31;;;;;;;17.58;5.07;;;20.20;27.10;;;;;;1028230;28;20051;-72
2021/01/21 00:59:02;;;;;;;17.48;5.90;;;20.20;27.00;;;;;;1028819;28;20441;-71
2021/01/21 00:59:34;;;;;;;19.48;7.13;;;20.20;27.10;;;;;;1033466;28;20018;-71
2021/01/21 01:00:11;;;;;;;18.73;6.97;;;20.10;27.10;;;;;;1038438;28;20026;-72
2021/01/21 01:00:42;;;;;;;19.08;7.30;;;20.10;27.10;;;;;;1040692;28;20021;-71
2021/01/21 01:01:13;;;;;;;20.60;7.57;;;20.00;27.30;;;;;;1040370;28;20029;-72
2021/01/21 01:01:45;;;;;;;22.55;8.05;;;20.00;27.30;;;;;;1039686;28;20029;-70
2021/01/21 01:02:16;;;;;;;21.65;7.72;;;19.90;27.50;;;;;;1039465;28;20087;-71
2021/01/21 01:02:48;;;;;;;17.17;7.00;;;19.80;27.60;;;;;;1038815;28;20025;-71
2021/01/21 01:03:19;;;;;;;21.00;6.15;;;19.80;27.60;;;;;;1039905;28;20031;-71
2021/01/21 01:03:51;;;;;;;17.10;5.97;;;19.70;27.60;;;;;;1036396;28;20025;-71
2021/01/21 01:04:22;;;;;;;19.67;6.32;;;19.70;27.60;;;;;;1033628;28;20025;-71
2021/01/21 01:04:54;;;;;;;14.07;5.47;;;19.70;27.60;;;;;;1035666;28;20067;-71
2021/01/21 01:05:25;;;;;;;13.80;5.95;;;19.60;27.50;;;;;;1036910;28;20049;-71
2021/01/21 01:05:57;;;;;;;15.90;7.10;;;19.60;27.50;;;;;;1037482;28;20469;-71
2021/01/21 01:06:28;;;;;;;22.15;7.68;;;19.60;28.10;;;;;;1037502;28;20037;-71
2021/01/21 01:06:59;;;;;;;18.23;7.20;;;19.60;27.70;;;;;;1037390;28;20087;-71
2021/01/21 01:07:31;;;;;;;24.63;8.43;;;19.50;27.70;;;;;;1037499;28;20014;-71
2021/01/21 01:08:03;;;;;;;22.88;8.30;;;19.50;27.90;;;;;;1038357;28;20495;-71
2021/01/21 01:08:35;;;;;;;19.55;8.43;;;19.40;28.10;;;;;;1040360;28;20033;-72
2021/01/21 01:09:06;;;;;;;29.40;11.48;;;19.40;28.10;;;;;;1036596;28;20049;-71
2021/01/21 01:09:37;;;;;;;30.55;12.02;;;19.40;28.00;;;;;;1038807;28;20461;-72
2021/01/21 01:10:09;;;;;;;23.70;9.50;;;19.30;28.00;;;;;;1034757;28;20021;-73
2021/01/21 01:10:41;;;;;;;24.30;8.23;;;19.30;28.00;;;;;;1035930;28;20022;-71
2021/01/21 01:11:12;;;;;;;22.83;7.70;;;19.20;27.90;;;;;;1039415;28;20089;-72
2021/01/21 01:11:43;;;;;;;25.90;7.63;;;19.20;28.00;;;;;;1040169;28;20025;-71
2021/01/21 01:12:15;;;;;;;19.52;7.40;;;19.20;28.10;;;;;;1038961;28;20013;-71
2021/01/21 01:12:46;;;;;;;16.17;6.47;;;19.10;28.40;;;;;;1032087;28;20032;-71
2021/01/21 01:13:18;;;;;;;16.27;6.07;;;19.10;28.30;;;;;;1032609;28;20090;-71
2021/01/21 01:13:49;;;;;;;17.20;6.43;;;19.00;28.30;;;;;;1032802;28;20336;-71
2021/01/21 01:14:20;;;;;;;19.73;5.47;;;19.00;28.40;;;;;;1033880;28;20117;-71
2021/01/21 01:14:52;;;;;;;18.33;4.95;;;19.00;28.30;;;;;;1036181;28;20010;-71
2021/01/21 01:15:28;;;;;;;16.45;4.53;;;19.00;28.20;;;;;;1039315;28;20065;-71
2021/01/21 01:16:00;;;;;;;12.50;3.53;;;18.90;28.20;;;;;;1039032;28;20022;-71
2021/01/21 01:16:31;;;;;;;14.15;3.88;;;18.90;28.30;;;;;;1036547;28;20010;-70
2021/01/21 01:17:02;;;;;;;12.65;3.70;;;18.90;28.40;;;;;;1040198;28;20439;-71
2021/01/21 01:17:35;;;;;;;12.50;3.97;;;18.90;28.50;;;;;;1040218;28;20398;-71
2021/01/21 01:18:06;;;;;;;13.27;3.80;;;18.80;28.70;;;;;;1040473;28;20043;-71
2021/01/21 01:18:37;;;;;;;8.75;3.00;;;18.80;28.70;;;;;;1039358;28;20024;-71
2021/01/21 01:19:09;;;;;;;12.73;3.30;;;18.70;28.80;;;;;;1040541;28;20103;-71
2021/01/21 01:19:40;;;;;;;11.07;3.15;;;18.60;28.90;;;;;;1039904;28;20025;-71
2021/01/21 01:20:12;;;;;;;12.02;3.30;;;18.60;29.00;;;;;;1038924;28;20331;-72
2021/01/21 01:20:44;;;;;;;22.45;3.35;;;18.60;29.00;;;;;;1039582;28;20060;-71
2021/01/21 01:21:16;;;;;;;12.50;3.38;;;18.50;28.90;;;;;;1040508;28;20020;-70
2021/01/21 01:21:47;;;;;;;11.13;3.08;;;18.50;28.90;;;;;;1035037;28;20014;-70
2021/01/21 01:22:18;;;;;;;9.95;2.63;;;18.40;29.00;;;;;;1036008;28;20440;-70
2021/01/21 01:22:51;;;;;;;11.75;2.85;;;18.40;29.00;;;;;;1040356;28;20044;-71
2021/01/21 01:23:23;;;;;;;9.32;2.80;;;18.30;29.00;;;;;;1039787;28;20009;-71
2021/01/21 01:23:54;;;;;;;13.38;2.75;;;18.30;29.30;;;;;;1042577;28;20074;-71
2021/01/21 01:24:25;;;;;;;13.70;2.90;;;18.30;29.40;;;;;;1042100;28;20017;-71
2021/01/21 01:24:57;;;;;;;13.50;3.00;;;18.20;29.30;;;;;;1040075;28;20017;-71
2021/01/21 01:25:28;;;;;;;12.43;2.63;;;18.20;29.60;;;;;;1040729;28;20067;-70
2021/01/21 01:25:59;;;;;;;12.63;3.03;;;18.10;29.80;;;;;;1037977;28;20097;-71
2021/01/21 01:26:31;;;;;;;15.75;2.58;;;18.10;29.60;;;;;;1036192;28;20093;-71
2021/01/21 01:27:02;;;;;;;12.82;3.10;;;18.00;29.50;;;;;;1036107;28;20440;-71
2021/01/21 01:27:34;;;;;;;15.32;3.03;;;18.00;29.70;;;;;;1039541;28;20013;-71
2021/01/21 01:28:05;;;;;;;10.93;2.60;;;17.90;29.80;;;;;;1038993;28;20111;-71
2021/01/21 01:28:40;;;;;;;10.43;2.65;;;17.80;30.00;;;;;;1040288;28;20019;-70
2021/01/21 01:29:11;;;;;;;12.80;2.72;;;17.80;29.90;;;;;;1040456;28;20060;-71
2021/01/21 01:29:45;;;;;;;12.02;3.10;;;17.70;30.00;;;;;;1040323;28;20010;-71
2021/01/21 01:30:17;;;;;;;10.93;2.60;;;17.70;30.00;;;;;;1043277;28;20009;-71
2021/01/21 01:30:49;;;;;;;13.15;3.15;;;17.70;30.00;;;;;;1040617;28;20005;-71
2021/01/21 01:31:21;;;;;;;13.20;3.00;;;17.60;30.00;;;;;;1040833;28;20412;-71
2021/01/21 01:31:52;;;;;;;9.57;2.83;;;17.60;30.20;;;;;;1040603;28;20347;-71
2021/01/21 01:32:23;;;;;;;11.63;2.88;;;17.60;30.20;;;;;;1039330;28;20048;-71
2021/01/21 01:32:55;;;;;;;13.68;3.03;;;17.50;30.10;;;;;;1039488;28;20335;-70
2021/01/21 01:33:26;;;;;;;9.55;2.70;;;17.50;30.00;;;;;;1037373;28;20035;-71
2021/01/21 01:33:57;;;;;;;11.77;2.75;;;17.50;30.10;;;;;;1037976;28;20018;-71
2021/01/21 01:34:29;;;;;;;11.98;2.40;;;17.50;30.10;;;;;;1040205;28;20014;-71
2021/01/21 01:35:00;;;;;;;12.95;3.00;;;17.40;30.00;;;;;;1039923;28;20006;-71
2021/01/21 01:35:32;;;;;;;14.57;3.00;;;17.40;30.00;;;;;;1036587;28;20010;-71
2021/01/21 01:36:04;;;;;;;15.27;3.08;;;17.40;30.20;;;;;;1040296;28;20466;-70
2021/01/21 01:36:35;;;;;;;11.32;2.50;;;17.40;30.20;;;;;;1036002;28;20029;-71
2021/01/21 01:37:07;;;;;;;11.73;2.97;;;17.40;30.20;;;;;;1036105;28;20810;-71
2021/01/21 01:37:42;;;;;;;12.43;2.72;;;17.30;30.30;;;;;;1037414;28;20435;-71
2021/01/21 01:38:13;;;;;;;13.60;2.85;;;17.30;30.40;;;;;;1037373;28;20451;-71
2021/01/21 01:38:45;;;;;;;20.42;2.85;;;17.30;30.40;;;;;;1040444;28;20013;-71
2021/01/21 01:39:16;;;;;;;11.00;3.10;;;17.30;30.40;;;;;;1037229;28;20471;-71
2021/01/21 01:39:47;;;;;;;15.13;2.70;;;17.30;30.50;;;;;;1035975;28;20022;-71
2021/01/21 01:40:19;;;;;;;12.80;2.38;;;17.20;30.50;;;;;;1035778;28;20010;-71
2021/01/21 01:40:53;;;;;;;12.88;3.00;;;17.20;30.50;;;;;;1034516;28;20010;-70
2021/01/21 01:41:28;;;;;;;13.90;3.45;;;17.10;30.60;;;;;;1036058;28;20119;-71
2021/01/21 01:42:06;;;;;;;12.77;2.53;;;17.10;30.80;;;;;;1039135;28;20056;-71
2021/01/21 01:42:39;;;;;;;15.38;3.28;;;17.00;30.80;;;;;;1038272;28;20016;-70
2021/01/21 01:43:10;;;;;;;15.10;3.30;;;16.90;30.70;;;;;;1034103;28;20436;-70
2021/01/21 01:43:41;;;;;;;17.83;3.08;;;16.90;31.50;;;;;;1039588;28;20009;-71
2021/01/21 01:44:13;;;;;;;10.20;3.13;;;16.90;30.80;;;;;;1039458;28;20018;-71
2021/01/21 01:44:44;;;;;;;12.80;2.58;;;16.80;30.90;;;;;;1039833;28;20033;-71
2021/01/21 01:45:15;;;;;;;14.32;3.10;;;16.70;31.00;;;;;;1043957;28;20044;-71
2021/01/21 01:45:47;;;;;;;15.10;3.00;;;16.70;31.00;;;;;;1039589;28;20009;-71
2021/01/21 01:46:18;;;;;;;9.65;2.30;;;16.70;31.00;;;;;;1040366;28;20001;-71
2021/01/21 01:46:50;;;;;;;11.15;2.55;;;16.60;31.60;;;;;;1037720;28;20017;-71
2021/01/21 01:47:21;;;;;;;14.27;2.88;;;16.60;31.00;;;;;;1038564;28;20014;-70
2021/01/21 01:47:53;;;;;;;11.77;2.90;;;16.50;31.10;;;;;;1036885;28;20037;-71
2021/01/21 01:48:24;;;;;;;16.08;2.90;;;16.50;31.00;;;;;;1040151;28;20339;-70
2021/01/21 01:48:57;;;;;;;12.30;2.80;;;16.40;31.10;;;;;;1035604;28;20022;-71
2021/01/21 01:49:29;;;;;;;13.45;2.72;;;16.40;30.90;;;;;;1036051;28;20029;-72
2021/01/21 01:50:00;;;;;;;16.52;2.80;;;16.40;30.90;;;;;;1034113;28;20026;-70
2021/01/21 01:50:32;;;;;;;15.32;3.20;;;16.40;30.90;;;;;;1033517;28;20030;-70
2021/01/21 01:51:04;;;;;;;16.73;3.15;;;16.30;30.90;;;;;;1033364;28;20022;-70
2021/01/21 01:51:38;;;;;;;14.80;3.17;;;16.30;30.60;;;;;;1037830;28;20163;-70
2021/01/21 01:52:09;;;;;;;16.45;3.00;;;16.30;30.60;;;;;;1039294;28;20359;-69
2021/01/21 01:52:41;;;;;;;15.13;3.10;;;16.20;30.50;;;;;;1039447;28;20104;-69
2021/01/21 01:53:13;;;;;;;11.70;2.65;;;16.20;30.60;;;;;;1039180;28;20025;-70
2021/01/21 01:53:44;;;;;;;11.23;2.70;;;16.20;30.70;;;;;;1040832;28;20059;-70
2021/01/21 01:54:16;;;;;;;13.93;3.38;;;16.20;30.70;;;;;;1034453;28;20018;-72
2021/01/21 01:54:50;;;;;;;8.43;2.65;;;16.20;30.50;;;;;;1033772;28;20404;-71
2021/01/21 01:55:22;;;;;;;14.52;3.47;;;16.20;30.60;;;;;;1040184;28;20450;-71
2021/01/21 01:55:54;;;;;;;12.18;2.50;;;16.10;30.50;;;;;;1040424;28;20072;-71
2021/01/21 01:56:26;;;;;;;13.38;2.80;;;16.10;30.40;;;;;;1044375;28;20021;-70
2021/01/21 01:57:01;;;;;;;13.32;2.63;;;16.00;30.40;;;;;;1043094;28;20033;-71
2021/01/21 01:57:32;;;;;;;14.68;2.90;;;16.00;30.70;;;;;;1041804;28;20486;-71
2021/01/21 01:58:04;;;;;;;18.50;3.03;;;16.00;30.80;;;;;;1040455;28;20017;-70
2021/01/21 01:58:35;;;;;;;12.95;3.10;;;16.00;31.60;;;;;;1037259;28;20022;-69
2021/01/21 01:59:06;;;;;;;14.10;3.05;;;16.00;31.10;;;;;;1038233;28;20025;-70
2021/01/21 01:59:40;;;;;;;14.50;3.85;;;16.00;31.10;;;;;;1038227;28;20079;-70
2021/01/21 02:00:12;;;;;;;11.85;2.83;;;16.00;31.30;;;;;;1037711;28;20021;-70
2021/01/21 02:00:45;;;;;;;12.77;3.35;;;15.90;31.20;;;;;;1040499;28;20431;-70
2021/01/21 02:01:19;;;;;;;15.40;3.13;;;15.90;31.20;;;;;;1039692;28;20029;-70
2021/01/21 02:01:50;;;;;;;16.70;3.45;;;15.90;31.30;;;;;;1040414;28;20026;-70
2021/01/21 02:02:22;;;;;;;17.17;3.50;;;15.80;31.40;;;;;;1040091;28;20017;-69
2021/01/21 02:02:53;;;;;;;9.35;2.60;;;15.80;31.50;;;;;;1035801;28;20109;-69
2021/01/21 02:03:25;;;;;;;15.55;3.22;;;15.70;31.60;;;;;;1035352;28;20359;-69
2021/01/21 02:03:59;;;;;;;15.20;3.30;;;15.70;32.00;;;;;;1031861;28;20460;-69
2021/01/21 02:04:30;;;;;;;14.45;3.60;;;15.60;32.00;;;;;;1032661;28;20026;-70
2021/01/21 02:05:03;;;;;;;16.23;3.40;;;15.60;32.00;;;;;;1036789;28;20089;-68
2021/01/21 02:05:34;;;;;;;18.05;3.28;;;15.60;32.20;;;;;;1037632;28;20089;-68
2021/01/21 02:06:06;;;;;;;16.75;2.88;;;15.60;32.20;;;;;;1038571;28;20022;-70
2021/01/21 02:06:38;;;;;;;13.20;2.85;;;15.60;32.10;;;;;;1037860;28;20028;-69
2021/01/21 02:07:09;;;;;;;17.25;3.60;;;15.50;32.00;;;;;;1043334;28;20078;-69
2021/01/21 02:07:40;;;;;;;15.73;3.10;;;15.50;32.00;;;;;;1041812;28;20475;-69
2021/01/21 02:08:12;;;;;;;8.60;2.72;;;15.50;32.10;;;;;;1043934;28;20451;-69
2021/01/21 02:08:44;;;;;;;10.20;2.70;;;15.50;32.30;;;;;;1043483;28;20342;-69
2021/01/21 02:09:15;;;;;;;16.05;2.78;;;15.50;32.50;;;;;;1038720;28;20020;-70
2021/01/21 02:09:48;;;;;;;9.80;2.70;;;15.40;32.20;;;;;;1040368;28;20352;-69
2021/01/21 02:10:21;;;;;;;17.27;3.00;;;15.40;32.00;;;;;;1037960;28;20109;-69
2021/01/21 02:11:00;;;;;;;22.60;3.20;;;15.30;32.00;;;;;;1036122;28;20102;-69
2021/01/21 02:11:43;;;;;;;15.75;2.90;;;15.30;32.10;;;;;;1036149;28;20014;-69
2021/01/21 02:12:32;;;;;;;15.23;2.72;;;15.20;32.10;;;;;;1035507;28;20049;-69
2021/01/21 02:13:22;;;;;;;15.75;3.65;;;15.20;32.10;;;;;;1036160;28;20352;-69
2021/01/21 02:14:15;;;;;;;18.00;3.22;;;15.20;32.10;;;;;;1036680;28;21411;-69
2021/01/21 02:15:02;;;;;;;15.13;3.30;;;15.10;32.40;;;;;;1036336;28;20444;-69
2021/01/21 02:15:52;;;;;;;16.63;3.05;;;15.00;32.40;;;;;;1037143;28;20470;-69
2021/01/21 02:16:47;;;;;;;18.17;2.88;;;15.10;32.40;;;;;;1037821;28;20400;-70
2021/01/21 02:17:29;;;;;;;14.60;3.10;;;15.00;32.50;;;;;;1038669;28;21364;-69
2021/01/21 02:18:06;;;;;;;14.82;3.53;;;15.00;32.40;;;;;;1040477;28;20013;-69
2021/01/21 02:18:43;;;;;;;21.70;3.15;;;15.00;32.50;;;;;;1038144;28;20026;-70
2021/01/21 02:20:02;;;;;;;17.13;3.55;;;14.90;32.80;;;;;;1036886;28;20018;-69
2021/01/21 02:21:13;;;;;;;21.25;3.72;;;14.90;33.00;;;;;;1026085;28;20468;-69
2021/01/21 02:22:06;;;;;;;20.45;3.47;;;14.80;33.00;;;;;;1033581;28;20436;-69
2021/01/21 02:23:02;;;;;;;12.65;3.20;;;14.80;32.60;;;;;;1037180;28;20333;-70
2021/01/21 02:23:54;;;;;;;13.07;3.33;;;14.80;32.70;;;;;;1034125;28;20033;-70
2021/01/21 02:25:10;;;;;;;15.75;3.95;;;14.70;32.50;;;;;;1037609;28;20092;-70
2021/01/21 02:26:05;;;;;;;18.00;3.30;;;14.70;33.00;;;;;;1039328;28;20033;-70
2021/01/21 02:26:39;;;;;;;13.65;3.03;;;14.60;33.00;;;;;;1037788;28;20097;-70
2021/01/21 02:27:12;;;;;;;24.85;3.97;;;14.60;32.90;;;;;;1044473;28;20009;-70
2021/01/21 02:27:46;;;;;;;17.77;3.53;;;14.60;33.70;;;;;;1044472;28;20063;-70
2021/01/21 02:29:01;;;;;;;15.93;3.70;;;14.50;33.30;;;;;;1037183;28;20030;-70
2021/01/21 02:29:37;;;;;;;16.17;3.17;;;14.50;33.20;;;;;;1024941;28;20060;-70
2021/01/21 02:30:33;;;;;;;19.63;3.38;;;14.50;33.30;;;;;;1036142;28;20025;-70
2021/01/21 02:31:34;;;;;;;21.83;3.58;;;14.50;32.90;;;;;;1024881;28;20034;-71
2021/01/21 02:32:08;;;;;;;23.55;4.13;;;14.50;32.90;;;;;;1026458;28;20874;-70
2021/01/21 02:32:54;;;;;;;21.00;3.60;;;14.50;32.70;;;;;;1027297;28;20523;-70
2021/01/21 02:33:59;;;;;;;16.67;3.83;;;14.50;32.90;;;;;;1038164;28;20018;-70
2021/01/21 02:34:46;;;;;;;16.65;3.40;;;14.40;33.10;;;;;;1037567;28;20026;-70
2021/01/21 02:35:20;;;;;;;16.27;3.50;;;14.40;33.10;;;;;;1034998;28;20436;-70
2021/01/21 02:35:52;;;;;;;14.88;3.60;;;14.40;33.50;;;;;;1031837;28;20065;-70
2021/01/21 02:36:33;;;;;;;20.88;3.50;;;14.40;33.40;;;;;;1032957;28;20121;-70
2021/01/21 02:37:09;;;;;;;15.73;3.70;;;14.30;33.70;;;;;;1037541;28;20014;-69
2021/01/21 02:37:52;;;;;;;16.98;4.57;;;14.30;33.80;;;;;;1037682;28;20040;-70
2021/01/21 02:38:25;;;;;;;68.63;36.38;;;14.30;33.80;;;;;;1040202;28;20018;-70
2021/01/21 02:38:58;;;;;;;59.45;29.15;;;14.30;34.00;;;;;;1040266;28;20032;-70
2021/01/21 02:39:30;;;;;;;44.15;21.52;;;14.30;33.90;;;;;;1040241;28;20014;-69
2021/01/21 02:40:04;;;;;;;35.38;13.23;;;14.30;34.10;;;;;;1039090;28;20463;-70
2021/01/21 02:40:36;;;;;;;27.00;8.02;;;14.20;34.10;;;;;;1040308;28;20022;-69
2021/01/21 02:41:09;;;;;;;19.90;5.35;;;14.30;34.30;;;;;;1035149;28;20035;-70
2021/01/21 02:41:40;;;;;;;18.95;4.30;;;14.20;33.70;;;;;;1037003;28;20014;-69
2021/01/21 02:42:11;;;;;;;24.52;8.45;;;14.20;33.70;;;;;;1035391;28;20025;-69
2021/01/21 02:42:47;;;;;;;21.50;9.30;;;14.20;33.20;;;;;;1036281;28;20355;-69
2021/01/21 02:43:19;;;;;;;36.50;19.38;;;14.20;33.30;;;;;;1040146;28;20006;-69
2021/01/21 02:43:54;;;;;;;38.70;13.10;;;14.20;33.50;;;;;;1033150;28;20036;-70
2021/01/21 02:44:29;;;;;;;23.90;8.18;;;14.20;33.20;;;;;;1036002;28;20014;-69
2021/01/21 02:45:00;;;;;;;24.35;5.10;;;14.10;33.00;;;;;;1039977;28;20076;-69
2021/01/21 02:45:32;;;;;;;22.75;4.72;;;14.10;33.10;;;;;;1038622;28;20041;-70
2021/01/21 02:46:03;;;;;;;17.60;4.13;;;14.10;32.90;;;;;;1040183;28;20460;-70
2021/01/21 02:46:35;;;;;;;19.85;4.00;;;14.10;32.90;;;;;;1039866;28;20015;-70
2021/01/21 02:47:07;;;;;;;19.15;3.80;;;14.10;32.80;;;;;;1038171;28;20057;-69
2021/01/21 02:47:39;;;;;;;19.45;3.90;;;14.10;32.50;;;;;;1036231;28;20358;-69
2021/01/21 02:48:11;;;;;;;23.80;3.67;;;14.20;32.80;;;;;;1038570;28;20018;-69
2021/01/21 02:48:42;;;;;;;18.17;4.18;;;14.20;32.90;;;;;;1036743;28;20030;-69
2021/01/21 02:49:14;;;;;;;19.92;3.80;;;14.10;33.20;;;;;;1040040;28;20024;-68
2021/01/21 02:49:48;;;;;;;20.13;3.40;;;14.10;32.90;;;;;;1040419;28;20010;-69
2021/01/21 02:50:20;;;;;;;18.38;3.90;;;14.10;32.90;;;;;;1039100;28;20454;-69
2021/01/21 02:51:01;;;;;;;19.00;3.50;;;14.10;32.50;;;;;;1039652;28;20096;-69
2021/01/21 02:51:37;;;;;;;19.27;3.42;;;14.10;32.50;;;;;;1039397;28;20025;-69
2021/01/21 02:52:15;;;;;;;14.13;3.45;;;14.10;32.40;;;;;;1038404;28;20029;-69
2021/01/21 02:52:56;;;;;;;19.73;3.28;;;14.10;31.70;;;;;;1040494;28;20094;-69
2021/01/21 02:53:29;;;;;;;15.05;3.78;;;14.20;31.70;;;;;;1041495;28;20048;-69